Time;durP1;ratioP1;P1;durP2;ratioP2;P2;SDS_P1;SDS_P2;PMS_P1;PMS_P2;Temp;Humidity;BMP_temperature;BMP_pressure;BME280_temperature;BME280_humidity;BME280_pressure;Samples;Min_cycle;Max_cycle;Signal;HPM_P1;HPM_P2
2021/07/11 00:00:59;;;;;;;;;;;;;;;14.99;100.00;101048.47;5074929;28;20300;-70
2021/07/11 00:03:25;;;;;;;;;;;;;;;14.97;100.00;101042.31;5074600;28;19990;-70
2021/07/11 00:05:52;;;;;;;;;;;;;;;14.97;100.00;101039.59;5074835;28;19925;-70
2021/07/11 00:08:18;;;;;;;;;;;;;;;14.98;100.00;101041.28;5074667;28;20439;-70
2021/07/11 00:10:44;;;;;;;;;;;;;;;14.95;100.00;101036.13;5074660;28;19925;-70
2021/07/11 00:13:10;;;;;;;;;;;;;;;14.94;100.00;101038.00;5074575;28;19975;-71
2021/07/11 00:15:38;;;;;;;;;;;;;;;14.94;100.00;101034.38;5074526;28;20450;-70
2021/07/11 00:18:04;;;;;;;;;;;;;;;14.94;100.00;101031.66;5074062;28;19971;-70
2021/07/11 00:20:31;;;;;;;;;;;;;;;14.94;100.00;101034.38;5074297;28;19932;-70
2021/07/11 00:22:57;;;;;;;;;;;;;;;14.93;100.00;101024.50;5074630;28;20292;-70
2021/07/11 00:25:23;;;;;;;;;;;;;;;14.86;100.00;101021.47;5074458;28;20415;-69
2021/07/11 00:27:50;;;;;;;;;;;;;;;14.78;100.00;101019.47;5074462;28;20400;-70
2021/07/11 00:30:18;;;;;;;;;;;;;;;14.75;100.00;101018.88;5074099;28;19929;-69
2021/07/11 00:32:46;;;;;;;;;;;;;;;14.71;100.00;101023.75;5074081;28;19981;-70
2021/07/11 00:35:12;;;;;;;;;;;;;;;14.69;100.00;101015.72;5073867;28;19928;-69
2021/07/11 00:37:39;;;;;;;;;;;;;;;14.68;100.00;101018.59;5074017;28;20454;-70
2021/07/11 00:40:06;;;;;;;;;;;;;;;14.64;100.00;101017.16;5074326;28;19932;-70
2021/07/11 00:42:33;;;;;;;;;;;;;;;14.62;100.00;101019.13;5073924;28;19931;-70
2021/07/11 00:44:59;;;;;;;;;;;;;;;14.60;100.00;101026.63;5072950;28;20015;-69
2021/07/11 00:47:29;;;;;;;;;;;;;;;14.59;100.00;101027.63;5072237;28;19978;-69
2021/07/11 00:49:57;;;;;;;;;;;;;;;14.55;100.00;101025.19;5072733;28;19960;-70
2021/07/11 00:52:24;;;;;;;;;;;;;;;14.57;100.00;101025.88;5072526;28;19924;-70
2021/07/11 00:54:50;;;;;;;;;;;;;;;14.55;100.00;101032.50;5072285;28;19925;-70
2021/07/11 00:57:18;;;;;;;;;;;;;;;14.52;100.00;101025.47;5072463;28;20065;-70
2021/07/11 00:59:45;;;;;;;;;;;;;;;14.50;100.00;101027.47;5073434;28;19928;-70
2021/07/11 01:02:14;;;;;;;;;;;;;;;14.47;100.00;101029.63;5073622;28;19945;-71
2021/07/11 01:04:48;;;;;;;;;;;;;;;14.40;100.00;101021.16;5073744;28;19928;-70
2021/07/11 01:07:18;;;;;;;;;;;;;;;14.33;100.00;101017.28;5073310;28;20410;-70
2021/07/11 01:09:48;;;;;;;;;;;;;;;14.33;100.00;101022.72;5073620;28;20304;-69
2021/07/11 01:12:19;;;;;;;;;;;;;;;14.28;100.00;101023.13;5071816;28;19963;-70
2021/07/11 01:14:47;;;;;;;;;;;;;;;14.28;100.00;101020.41;5072350;28;19993;-70
2021/07/11 01:17:17;;;;;;;;;;;;;;;14.25;100.00;101014.38;5072141;28;19924;-69
2021/07/11 01:19:54;;;;;;;;;;;;;;;14.21;100.00;101020.09;5073424;28;19932;-69
2021/07/11 01:22:25;;;;;;;;;;;;;;;14.17;100.00;101020.56;5071923;28;19928;-69
2021/07/11 01:24:54;;;;;;;;;;;;;;;14.16;100.00;101014.25;5073325;28;19940;-69
2021/07/11 01:27:22;;;;;;;;;;;;;;;14.10;100.00;101017.53;5072970;28;19928;-69
2021/07/11 01:29:49;;;;;;;;;;;;;;;14.04;100.00;101024.41;5072951;28;19932;-69
2021/07/11 01:32:17;;;;;;;;;;;;;;;14.01;100.00;101019.22;5071659;28;20311;-69
2021/07/11 01:34:48;;;;;;;;;;;;;;;13.96;100.00;101015.19;5072963;28;19924;-70
2021/07/11 01:37:16;;;;;;;;;;;;;;;13.95;100.00;101021.63;5071133;28;20438;-71
2021/07/11 01:39:43;;;;;;;;;;;;;;;13.93;100.00;101019.06;5071641;28;19931;-70
2021/07/11 01:42:11;;;;;;;;;;;;;;;13.92;100.00;101022.78;5072933;28;19990;-70
2021/07/11 01:44:41;;;;;;;;;;;;;;;13.93;100.00;101024.50;5071591;28;19925;-69
2021/07/11 01:47:08;;;;;;;;;;;;;;;13.95;100.00;101024.38;5071536;28;19924;-69
2021/07/11 01:49:37;;;;;;;;;;;;;;;13.91;100.00;101026.53;5071423;28;19929;-69
2021/07/11 01:52:04;;;;;;;;;;;;;;;13.88;100.00;101030.41;5071472;28;19978;-69
2021/07/11 01:54:31;;;;;;;;;;;;;;;13.87;100.00;101025.94;5071397;28;19924;-70
2021/07/11 01:56:59;;;;;;;;;;;;;;;13.83;100.00;101023.59;5072415;28;19959;-70
2021/07/11 01:59:27;;;;;;;;;;;;;;;13.80;100.00;101027.50;5071376;28;20011;-69
2021/07/11 02:02:14;;;;;;;;;;;;;;;13.77;100.00;101024.19;5071181;28;20036;-70
2021/07/11 02:04:47;;;;;;;;;;;;;;;13.74;100.00;101025.31;5071376;28;20319;-69
2021/07/11 02:07:14;;;;;;;;;;;;;;;13.72;100.00;101028.19;5072040;28;19931;-69
2021/07/11 02:09:40;;;;;;;;;;;;;;;13.73;100.00;101029.03;5071015;28;20289;-69
2021/07/11 02:12:12;;;;;;;;;;;;;;;13.70;100.00;101029.31;5071150;28;19931;-69
2021/07/11 02:14:49;;;;;;;;;;;;;;;13.68;100.00;101031.31;5071002;28;19931;-69
2021/07/11 02:17:19;;;;;;;;;;;;;;;13.65;100.00;101037.06;5070875;28;20023;-69
2021/07/11 02:20:00;;;;;;;;;;;;;;;13.62;100.00;101035.47;5072099;28;19929;-69
2021/07/11 02:22:27;;;;;;;;;;;;;;;13.56;100.00;101025.09;5070805;28;19924;-69
2021/07/11 02:24:58;;;;;;;;;;;;;;;13.55;100.00;101026.13;5070974;28;19925;-69
2021/07/11 02:27:30;;;;;;;;;;;;;;;13.51;100.00;101027.38;5071725;28;19928;-69
2021/07/11 02:29:59;;;;;;;;;;;;;;;13.48;100.00;101028.53;5070809;28;19931;-69
2021/07/11 02:32:27;;;;;;;;;;;;;;;13.49;100.00;101026.66;5071696;28;20040;-69
2021/07/11 02:34:54;;;;;;;;;;;;;;;13.50;100.00;101042.88;5070625;28;19972;-69
2021/07/11 02:37:23;;;;;;;;;;;;;;;13.50;100.00;101034.69;5070404;28;19998;-69
2021/07/11 02:39:50;;;;;;;;;;;;;;;13.52;100.00;101035.44;5071789;28;19978;-69
2021/07/11 02:42:18;;;;;;;;;;;;;;;13.55;100.00;101039.75;5070414;28;20004;-69
2021/07/11 02:44:46;;;;;;;;;;;;;;;13.55;100.00;101035.16;5070346;28;19924;-69
2021/07/11 02:47:15;;;;;;;;;;;;;;;13.55;100.00;101037.88;5070302;28;19931;-69
2021/07/11 02:49:49;;;;;;;;;;;;;;;13.53;100.00;101033.56;5069931;28;20363;-69
2021/07/11 02:52:18;;;;;;;;;;;;;;;13.49;100.00;101035.69;5070481;28;20011;-69
2021/07/11 02:54:46;;;;;;;;;;;;;;;13.46;100.00;101030.50;5071648;28;20019;-70
2021/07/11 02:57:18;;;;;;;;;;;;;;;13.46;100.00;101033.25;5071527;28;19932;-69
2021/07/11 02:59:46;;;;;;;;;;;;;;;13.44;100.00;101034.38;5070082;28;19978;-69
2021/07/11 03:02:13;;;;;;;;;;;;;;;13.44;100.00;101031.66;5070186;28;19928;-70
2021/07/11 03:04:42;;;;;;;;;;;;;;;13.45;100.00;101036.09;5069987;28;19925;-69
2021/07/11 03:07:11;;;;;;;;;;;;;;;13.43;100.00;101033.53;5070193;28;20375;-69
2021/07/11 03:09:40;;;;;;;;;;;;;;;13.42;100.00;101037.25;5070405;28;19925;-69
2021/07/11 03:12:08;;;;;;;;;;;;;;;13.42;100.00;101033.66;5070251;28;19928;-69
2021/07/11 03:14:37;;;;;;;;;;;;;;;13.38;100.00;101039.38;5071943;28;19924;-69
2021/07/11 03:17:07;;;;;;;;;;;;;;;13.37;100.00;101042.22;5070149;28;19932;-69
2021/07/11 03:19:37;;;;;;;;;;;;;;;13.36;100.00;101037.78;5071103;28;20375;-69
2021/07/11 03:22:04;;;;;;;;;;;;;;;13.35;100.00;101031.44;5070209;28;19924;-69
2021/07/11 03:24:36;;;;;;;;;;;;;;;13.37;100.00;101036.78;5070068;28;19946;-70
2021/07/11 03:27:04;;;;;;;;;;;;;;;13.37;100.00;101042.22;5070139;28;19998;-69
2021/07/11 03:29:37;;;;;;;;;;;;;;;13.39;100.00;101037.53;5071349;28;19970;-69
2021/07/11 03:32:04;;;;;;;;;;;;;;;13.40;100.00;101033.78;5071311;28;19990;-69
2021/07/11 03:34:31;;;;;;;;;;;;;;;13.42;100.00;101041.84;5070177;28;19939;-69
2021/07/11 03:37:08;;;;;;;;;;;;;;;13.46;100.00;101037.84;5069953;28;19924;-69
2021/07/11 03:39:41;;;;;;;;;;;;;;;13.48;100.00;101044.00;5070099;28;20278;-69
2021/07/11 03:42:11;;;;;;;;;;;;;;;13.50;100.00;101033.84;5071270;28;19928;-70
2021/07/11 03:44:40;;;;;;;;;;;;;;;13.55;100.00;101037.03;5069961;28;19925;-69
2021/07/11 03:47:09;;;;;;;;;;;;;;;13.58;100.00;101033.16;5071051;28;19924;-69
2021/07/11 03:49:37;;;;;;;;;;;;;;;13.63;100.00;101039.94;5071244;28;19929;-69
2021/07/11 03:52:04;;;;;;;;;;;;;;;13.70;100.00;101029.31;5071467;28;20474;-69
2021/07/11 03:54:33;;;;;;;;;;;;;;;13.77;100.00;101030.50;5071084;28;19933;-70
2021/07/11 03:57:01;;;;;;;;;;;;;;;13.83;100.00;101032.69;5071048;28;20008;-69
2021/07/11 03:59:28;;;;;;;;;;;;;;;13.89;100.00;101021.19;5070711;28;20357;-69
2021/07/11 04:01:54;;;;;;;;;;;;;;;13.96;100.00;101024.22;5073967;28;19924;-69
2021/07/11 04:04:22;;;;;;;;;;;;;;;14.02;100.00;101017.38;5074578;28;19971;-69
2021/07/11 04:06:50;;;;;;;;;;;;;;;14.09;100.00;101032.16;5074541;28;19963;-69
2021/07/11 04:09:17;;;;;;;;;;;;;;;14.16;100.00;101029.72;5074685;28;20407;-69
2021/07/11 04:11:43;;;;;;;;;;;;;;;14.22;100.00;101023.72;5074563;28;19924;-69
2021/07/11 04:14:14;;;;;;;;;;;;;;;14.29;100.00;101024.03;5074458;28;20027;-69
2021/07/11 04:16:40;;;;;;;;;;;;;;;14.40;100.00;101029.34;5074345;28;19967;-69
2021/07/11 04:19:07;;;;;;;;;;;;;;;14.49;100.00;101030.38;5074576;28;20373;-69
2021/07/11 04:21:34;;;;;;;;;;;;;;;14.62;100.00;101027.31;5074195;28;19924;-69
2021/07/11 04:24:00;;;;;;;;;;;;;;;14.73;100.00;101035.44;5074469;28;19948;-69
2021/07/11 04:26:27;;;;;;;;;;;;;;;14.82;100.00;101037.28;5074234;28;20384;-69
2021/07/11 04:28:53;;;;;;;;;;;;;;;14.93;100.00;101032.69;5074202;28;20395;-69
2021/07/11 04:31:22;;;;;;;;;;;;;;;15.05;100.00;101032.34;5073923;28;19924;-69
2021/07/11 04:33:49;;;;;;;;;;;;;;;15.21;100.00;101039.09;5074385;28;20335;-69
2021/07/11 04:36:15;;;;;;;;;;;;;;;15.39;100.00;101022.78;5074101;28;19924;-69
2021/07/11 04:38:42;;;;;;;;;;;;;;;15.57;100.00;101031.94;5074226;28;19959;-69
2021/07/11 04:41:10;;;;;;;;;;;;;;;15.77;100.00;101028.25;5074048;28;20368;-69
2021/07/11 04:43:36;;;;;;;;;;;;;;;15.95;100.00;101029.19;5074067;28;19925;-69
2021/07/11 04:46:02;;;;;;;;;;;;;;;16.12;100.00;101021.19;5073900;28;19974;-69
2021/07/11 04:48:30;;;;;;;;;;;;;;;16.31;100.00;101029.25;5073540;28;19924;-69
2021/07/11 04:50:56;;;;;;;;;;;;;;;16.49;100.00;101033.88;5073811;28;19974;-69
2021/07/11 04:53:24;;;;;;;;;;;;;;;16.67;100.00;101023.78;5074283;28;19964;-70
2021/07/11 04:55:51;;;;;;;;;;;;;;;16.87;100.00;101023.63;5073952;28;19957;-69
2021/07/11 04:58:18;;;;;;;;;;;;;;;17.10;100.00;101023.97;5073520;28;19975;-69
2021/07/11 05:00:44;;;;;;;;;;;;;;;17.30;100.00;101015.56;5073800;28;20363;-69
2021/07/11 05:03:10;;;;;;;;;;;;;;;17.48;100.00;101018.25;5073583;28;20027;-69
2021/07/11 05:05:38;;;;;;;;;;;;;;;17.69;100.00;101006.84;5073797;28;19968;-69
2021/07/11 05:08:04;;;;;;;;;;;;;;;17.87;100.00;101001.28;5073402;28;20372;-69
2021/07/11 05:10:31;;;;;;;;;;;;;;;18.06;100.00;101013.88;5073408;28;19983;-70
2021/07/11 05:12:57;;;;;;;;;;;;;;;18.23;100.00;101004.66;5072667;28;20007;-69
2021/07/11 05:15:23;;;;;;;;;;;;;;;18.41;100.00;101000.91;5073394;28;19967;-68
2021/07/11 05:17:50;;;;;;;;;;;;;;;18.57;100.00;101011.94;5073481;28;20411;-68
2021/07/11 05:20:16;;;;;;;;;;;;;;;18.78;100.00;100998.72;5074305;28;19925;-69
2021/07/11 05:22:44;;;;;;;;;;;;;;;18.99;100.00;101010.06;5073861;28;20020;-69
2021/07/11 05:25:10;;;;;;;;;;;;;;;19.26;100.00;101009.88;5073164;28;19964;-69
2021/07/11 05:27:37;;;;;;;;;;;;;;;19.47;100.00;101001.03;5073135;28;19971;-70
2021/07/11 05:30:03;;;;;;;;;;;;;;;19.66;100.00;101008.88;5089355;28;19924;-69
2021/07/11 05:32:30;;;;;;;;;;;;;;;19.86;100.00;101001.09;5084982;28;20569;-69
2021/07/11 05:34:56;;;;;;;;;;;;;;;19.99;100.00;100996.91;5073022;28;19963;-69
2021/07/11 05:37:22;;;;;;;;;;;;;;;20.14;100.00;100992.34;5072552;28;19929;-68
2021/07/11 05:39:50;;;;;;;;;;;;;;;20.31;100.00;100995.00;5073383;28;20451;-68
2021/07/11 05:42:16;;;;;;;;;;;;;;;20.42;100.00;100997.34;5075520;28;19932;-68
2021/07/11 05:44:43;;;;;;;;;;;;;;;20.54;100.00;100998.63;5090968;28;19952;-68
2021/07/11 05:47:09;;;;;;;;;;;;;;;20.69;100.00;101003.38;5080693;28;19986;-69
2021/07/11 05:49:35;;;;;;;;;;;;;;;20.88;100.00;101000.13;5072576;28;19963;-69
2021/07/11 05:52:03;;;;;;;;;;;;;;;20.97;100.00;101000.03;5072661;28;20011;-69
2021/07/11 05:54:29;;;;;;;;;;;;;;;21.03;100.00;100996.50;5072618;28;19924;-70
2021/07/11 05:56:56;;;;;;;;;;;;;;;21.04;100.00;100996.31;5072358;28;19964;-69
2021/07/11 05:59:23;;;;;;;;;;;;;;;21.17;100.00;100997.59;5072867;28;19968;-69
2021/07/11 06:01:49;;;;;;;;;;;;;;;21.29;100.00;100995.25;5072419;28;19959;-69
2021/07/11 06:04:16;;;;;;;;;;;;;;;21.30;100.00;100991.41;5073558;28;20404;-70
2021/07/11 06:06:42;;;;;;;;;;;;;;;21.52;100.00;100995.16;5072249;28;19924;-69
2021/07/11 06:09:08;;;;;;;;;;;;;;;21.82;100.00;100993.25;5072426;28;19967;-69
2021/07/11 06:11:34;;;;;;;;;;;;;;;22.11;100.00;100994.22;5072261;28;20436;-70
2021/07/11 06:14:02;;;;;;;;;;;;;;;22.29;100.00;100991.06;5072165;28;19970;-70
2021/07/11 06:16:28;;;;;;;;;;;;;;;22.41;100.00;100999.72;5071950;28;19924;-70
2021/07/11 06:18:54;;;;;;;;;;;;;;;22.82;100.00;100998.19;5070962;28;19966;-70
2021/07/11 06:21:21;;;;;;;;;;;;;;;23.26;100.00;101004.53;5072228;28;20444;-70
2021/07/11 06:23:47;;;;;;;;;;;;;;;23.50;100.00;101001.28;5072265;28;19924;-70
2021/07/11 06:26:14;;;;;;;;;;;;;;;23.66;100.00;101000.09;5071967;28;19986;-69
2021/07/11 06:28:40;;;;;;;;;;;;;;;23.90;100.00;100993.25;5071960;28;19963;-70
2021/07/11 06:31:08;;;;;;;;;;;;;;;24.05;100.00;100986.66;5080482;28;19924;-71
2021/07/11 06:33:34;;;;;;;;;;;;;;;24.12;100.00;100982.00;5092036;28;20023;-71
2021/07/11 06:36:00;;;;;;;;;;;;;;;24.27;100.00;100989.31;5090327;28;20180;-71
2021/07/11 06:38:27;;;;;;;;;;;;;;;24.64;100.00;100987.03;5092043;28;19947;-71
2021/07/11 06:40:53;;;;;;;;;;;;;;;24.98;100.00;100987.94;5081809;28;20031;-71
2021/07/11 06:43:19;;;;;;;;;;;;;;;25.36;100.00;100981.69;5071625;28;20001;-70
2021/07/11 06:45:46;;;;;;;;;;;;;;;25.52;100.00;100989.59;5085071;28;20280;-71
2021/07/11 06:48:14;;;;;;;;;;;;;;;25.59;100.00;100978.47;5084259;28;19929;-72
2021/07/11 06:50:43;;;;;;;;;;;;;;;25.79;100.00;100983.94;5071570;28;20353;-70
2021/07/11 06:53:09;;;;;;;;;;;;;;;26.18;100.00;100987.66;5073870;28;20020;-71
2021/07/11 06:55:36;;;;;;;;;;;;;;;26.51;100.00;100992.16;5081335;28;19929;-72
2021/07/11 06:58:02;;;;;;;;;;;;;;;26.65;100.00;100990.13;5071683;28;20113;-71
2021/07/11 07:00:28;;;;;;;;;;;;;;;27.07;100.00;100989.59;5072233;28;19925;-71
2021/07/11 07:02:54;;;;;;;;;;;;;;;27.46;99.97;100987.56;5073288;28;20042;-72
2021/07/11 07:05:22;;;;;;;;;;;;;;;27.56;100.00;100990.63;5085408;28;19956;-70
2021/07/11 07:07:48;;;;;;;;;;;;;;;27.55;95.59;100990.88;5078610;28;19978;-70
2021/07/11 07:10:15;;;;;;;;;;;;;;;27.62;92.61;100986.09;5070151;28;19925;-70
2021/07/11 07:12:42;;;;;;;;;;;;;;;27.62;98.90;100982.44;5082098;28;19970;-71
2021/07/11 07:15:09;;;;;;;;;;;;;;;27.64;98.79;100985.84;5091663;28;20391;-70
2021/07/11 07:17:35;;;;;;;;;;;;;;;27.84;90.62;100988.41;5080233;28;19956;-71
2021/07/11 07:20:01;;;;;;;;;;;;;;;28.02;96.42;100988.41;5071260;28;19970;-71
2021/07/11 07:22:29;;;;;;;;;;;;;;;27.92;92.08;100990.03;5071168;28;20019;-70
2021/07/11 07:24:55;;;;;;;;;;;;;;;27.92;90.39;100990.03;5083655;28;20371;-71
2021/07/11 07:27:22;;;;;;;;;;;;;;;28.00;87.06;100990.53;5085511;28;19960;-71
2021/07/11 07:29:48;;;;;;;;;;;;;;;28.20;84.86;100987.50;5072353;28;19971;-71
2021/07/11 07:32:14;;;;;;;;;;;;;;;28.25;79.13;100978.44;5075089;28;20014;-70
2021/07/11 07:34:41;;;;;;;;;;;;;;;28.40;84.72;100991.97;5086988;28;19924;-71
2021/07/11 07:37:07;;;;;;;;;;;;;;;28.53;86.88;100991.78;5094940;28;19990;-71
2021/07/11 07:39:34;;;;;;;;;;;;;;;28.91;79.73;100986.06;5095104;28;20022;-71
2021/07/11 07:42:01;;;;;;;;;;;;;;;29.21;80.76;100988.75;5054804;28;20023;-71
2021/07/11 07:44:27;;;;;;;;;;;;;;;29.59;73.53;100984.63;5074752;28;20467;-71
2021/07/11 07:46:53;;;;;;;;;;;;;;;29.73;74.03;100994.44;5075016;28;19990;-71
2021/07/11 07:49:21;;;;;;;;;;;;;;;29.27;66.26;100986.97;5082986;28;19924;-69
2021/07/11 07:51:47;;;;;;;;;;;;;;;29.23;72.32;100992.16;5084822;28;19960;-70
2021/07/11 07:54:13;;;;;;;;;;;;;;;29.08;70.80;100989.84;5094960;28;19993;-70
2021/07/11 07:56:41;;;;;;;;;;;;;;;29.31;70.94;100993.78;5081446;28;19964;-70
2021/07/11 07:59:07;;;;;;;;;;;;;;;29.28;67.21;100992.31;5064355;28;19925;-70
2021/07/11 08:01:34;;;;;;;;;;;;;;;29.19;66.39;100988.97;5054310;28;19925;-69
2021/07/11 08:04:03;;;;;;;;;;;;;;;29.27;64.38;100992.56;5061457;28;20019;-70
2021/07/11 08:06:29;;;;;;;;;;;;;;;29.42;69.54;100992.06;5074120;28;19958;-70
2021/07/11 08:08:56;;;;;;;;;;;;;;;29.38;64.00;100998.16;5074643;28;19970;-70
2021/07/11 08:11:22;;;;;;;;;;;;;;;29.42;66.21;100990.09;5080662;28;20387;-71
2021/07/11 08:13:50;;;;;;;;;;;;;;;29.55;60.73;100995.44;5078436;28;20174;-71
2021/07/11 08:16:16;;;;;;;;;;;;;;;29.50;64.40;100995.31;5074598;28;20399;-71
2021/07/11 08:18:47;;;;;;;;;;;;;;;29.14;60.26;100990.81;5074317;28;19924;-71
2021/07/11 08:21:14;;;;;;;;;;;;;;;29.42;69.84;100983.66;5074388;28;20024;-71
2021/07/11 08:23:40;;;;;;;;;;;;;;;29.22;65.90;100988.50;5074502;28;19932;-71
2021/07/11 08:26:06;;;;;;;;;;;;;;;29.72;71.67;100992.75;5074670;28;19970;-71
2021/07/11 08:28:33;;;;;;;;;;;;;;;30.02;61.71;100990.88;5075169;28;19928;-71
2021/07/11 08:31:00;;;;;;;;;;;;;;;30.07;58.95;100987.34;5074180;28;19925;-71
2021/07/11 08:33:26;;;;;;;;;;;;;;;30.45;68.93;100995.09;5074243;28;19992;-71
2021/07/11 08:35:53;;;;;;;;;;;;;;;30.37;54.87;100985.13;5072982;28;20031;-70
2021/07/11 08:38:19;;;;;;;;;;;;;;;30.53;59.23;100986.31;5074378;28;19959;-70
2021/07/11 08:40:45;;;;;;;;;;;;;;;30.66;60.70;100984.28;5093893;28;20027;-71
2021/07/11 08:43:12;;;;;;;;;;;;;;;30.36;54.05;100991.00;5092382;28;19970;-72
2021/07/11 08:45:38;;;;;;;;;;;;;;;30.14;50.80;100983.28;5094387;28;20295;-71
2021/07/11 08:48:06;;;;;;;;;;;;;;;29.88;52.75;100985.56;5085829;28;20035;-71
2021/07/11 08:50:33;;;;;;;;;;;;;;;30.09;55.55;100991.56;5080430;28;20029;-71
2021/07/11 08:52:59;;;;;;;;;;;;;;;30.43;54.93;100990.84;5094095;28;20014;-71
2021/07/11 08:55:27;;;;;;;;;;;;;;;30.82;54.58;100988.19;5083156;28;19931;-71
2021/07/11 08:57:54;;;;;;;;;;;;;;;30.77;53.94;100986.13;5075031;28;19932;-73
2021/07/11 09:00:23;;;;;;;;;;;;;;;31.18;51.86;100992.44;5086538;28;19970;-72
2021/07/11 09:02:49;;;;;;;;;;;;;;;31.36;50.89;100990.47;5073611;28;20015;-72
2021/07/11 09:05:24;;;;;;;;;;;;;;;31.49;51.12;100995.72;5073449;28;20043;-72
2021/07/11 09:07:57;;;;;;;;;;;;;;;31.43;46.59;100987.47;5073502;28;19978;-73
2021/07/11 09:10:27;;;;;;;;;;;;;;;30.66;47.94;100987.91;5074280;28;20350;-73
2021/07/11 09:12:54;;;;;;;;;;;;;;;31.01;48.37;100981.25;5089345;28;19978;-73
2021/07/11 09:15:27;;;;;;;;;;;;;;;30.94;50.08;100980.53;5075909;28;19924;-71
2021/07/11 09:17:55;;;;;;;;;;;;;;;30.85;49.28;100982.94;5073332;28;19962;-71
2021/07/11 09:20:21;;;;;;;;;;;;;;;31.09;48.74;100984.75;5091767;28;19924;-71
2021/07/11 09:22:56;;;;;;;;;;;;;;;30.79;46.83;100978.34;5093414;28;20023;-71
2021/07/11 09:25:22;;;;;;;;;;;;;;;31.28;43.90;100979.69;5093494;28;19963;-71
2021/07/11 09:27:48;;;;;;;;;;;;;;;31.57;42.83;100979.56;5092974;28;20057;-71
2021/07/11 09:30:17;;;;;;;;;;;;;;;31.89;43.07;100979.72;5074318;28;20016;-71
2021/07/11 09:32:44;;;;;;;;;;;;;;;31.80;42.39;100989.72;5079921;28;19931;-71
2021/07/11 09:35:11;;;;;;;;;;;;;;;31.68;45.47;100990.69;5085154;28;20366;-70
2021/07/11 09:37:39;;;;;;;;;;;;;;;30.86;42.30;100990.22;5080351;28;20042;-70
2021/07/11 09:40:08;;;;;;;;;;;;;;;31.39;45.95;100993.63;5080887;28;19970;-70
2021/07/11 09:42:35;;;;;;;;;;;;;;;31.59;42.81;100995.03;5074474;28;20425;-70
2021/07/11 09:45:02;;;;;;;;;;;;;;;31.54;43.58;100987.38;5071914;28;19928;-71
2021/07/11 09:47:30;;;;;;;;;;;;;;;31.67;44.63;100994.59;5072723;28;20391;-70
2021/07/11 09:50:06;;;;;;;;;;;;;;;31.55;42.85;100991.88;5072997;28;20382;-70
2021/07/11 09:52:33;;;;;;;;;;;;;;;31.87;46.31;100985.59;5072522;28;20023;-70
2021/07/11 09:55:00;;;;;;;;;;;;;;;32.58;42.48;100986.69;5072667;28;20395;-70
2021/07/11 09:57:35;;;;;;;;;;;;;;;32.66;41.93;100977.78;5072321;28;20463;-70
2021/07/11 10:00:02;;;;;;;;;;;;;;;32.23;41.17;100985.22;5072263;28;19971;-70
2021/07/11 10:02:36;;;;;;;;;;;;;;;32.37;40.44;100985.63;5072178;28;19932;-70
2021/07/11 10:05:03;;;;;;;;;;;;;;;32.69;43.36;100977.22;5072317;28;19962;-70
2021/07/11 10:07:29;;;;;;;;;;;;;;;32.33;44.04;100985.31;5072102;28;20378;-70
2021/07/11 10:09:56;;;;;;;;;;;;;;;31.07;43.69;100985.00;5077508;28;19974;-70
2021/07/11 10:12:22;;;;;;;;;;;;;;;31.58;43.40;100987.72;5092494;28;20027;-70
2021/07/11 10:14:49;;;;;;;;;;;;;;;31.79;40.18;100994.47;5092687;28;20479;-71
2021/07/11 10:17:17;;;;;;;;;;;;;;;30.77;42.14;100993.69;5092523;28;20120;-70
2021/07/11 10:19:45;;;;;;;;;;;;;;;31.59;44.05;101002.56;5090645;28;20014;-70
2021/07/11 10:22:12;;;;;;;;;;;;;;;32.04;38.88;100998.69;5092069;28;20488;-70
2021/07/11 10:24:40;;;;;;;;;;;;;;;32.65;39.47;100997.72;5092314;28;20038;-70
2021/07/11 10:27:16;;;;;;;;;;;;;;;33.25;43.48;100994.88;5073344;28;20084;-70
2021/07/11 10:29:44;;;;;;;;;;;;;;;31.78;40.19;100995.59;5077012;28;19924;-70
2021/07/11 10:32:20;;;;;;;;;;;;;;;30.62;51.62;100985.88;5082558;28;20015;-71
2021/07/11 10:34:46;;;;;;;;;;;;;;;30.62;51.09;100985.88;5071668;28;19924;-70
2021/07/11 10:37:15;;;;;;;;;;;;;;;31.13;47.05;100983.97;5071537;28;21419;-70
2021/07/11 10:39:41;;;;;;;;;;;;;;;30.70;46.88;100986.31;5071978;28;19986;-70
2021/07/11 10:42:09;;;;;;;;;;;;;;;30.05;52.01;100985.63;5070717;28;20015;-71
2021/07/11 10:44:35;;;;;;;;;;;;;;;29.98;49.58;100981.28;5077145;28;20446;-70
2021/07/11 10:47:03;;;;;;;;;;;;;;;30.52;53.57;100987.41;5071899;28;20026;-71
2021/07/11 10:49:32;;;;;;;;;;;;;;;31.33;52.63;100986.22;5090865;28;20018;-70
2021/07/11 10:51:58;;;;;;;;;;;;;;;31.91;45.15;100982.25;5084531;28;19924;-72
2021/07/11 10:54:27;;;;;;;;;;;;;;;30.92;47.07;100982.78;5091141;28;19948;-71
2021/07/11 10:56:54;;;;;;;;;;;;;;;30.48;51.35;100985.34;5081582;28;19940;-71
2021/07/11 10:59:30;;;;;;;;;;;;;;;29.52;49.96;100981.94;5071113;28;19924;-70
2021/07/11 11:01:58;;;;;;;;;;;;;;;28.95;60.96;100985.31;5072426;28;19929;-72
2021/07/11 11:04:24;;;;;;;;;;;;;;;29.40;71.71;100983.91;5069455;28;19978;-71
2021/07/11 11:06:53;;;;;;;;;;;;;;;29.91;65.64;100975.00;5069865;28;19925;-71
2021/07/11 11:09:37;;;;;;;;;;;;;;;30.58;57.23;100973.50;5074163;28;19977;-71
2021/07/11 11:12:04;;;;;;;;;;;;;;;30.32;64.31;100961.78;5090868;28;19999;-72
2021/07/11 11:14:32;;;;;;;;;;;;;;;29.93;57.00;100975.56;5081230;28;20309;-71
2021/07/11 11:16:58;;;;;;;;;;;;;;;29.25;54.44;100973.22;5072388;28;19971;-70
2021/07/11 11:19:24;;;;;;;;;;;;;;;28.88;62.13;100977.06;5070694;28;20019;-70
2021/07/11 11:21:55;;;;;;;;;;;;;;;29.78;54.18;100962.94;5070668;28;19954;-72
2021/07/11 11:24:21;;;;;;;;;;;;;;;31.06;48.39;100960.88;5073202;28;19924;-72
2021/07/11 11:26:47;;;;;;;;;;;;;;;32.13;47.51;100965.41;5070229;28;19971;-72
2021/07/11 11:29:14;;;;;;;;;;;;;;;32.68;48.99;100963.47;5082285;28;20465;-72
2021/07/11 11:31:40;;;;;;;;;;;;;;;31.78;42.54;100958.28;5086813;28;20011;-72
2021/07/11 11:34:07;;;;;;;;;;;;;;;30.71;55.05;100965.59;5069319;28;19967;-72
2021/07/11 11:36:36;;;;;;;;;;;;;;;31.47;49.75;100961.47;5069054;28;20410;-72
2021/07/11 11:39:06;;;;;;;;;;;;;;;31.06;44.08;100960.88;5070484;28;20204;-72
2021/07/11 11:41:32;;;;;;;;;;;;;;;31.46;46.72;100968.19;5070912;28;19925;-72
2021/07/11 11:44:06;;;;;;;;;;;;;;;31.21;46.12;100958.31;5069767;28;19986;-71
2021/07/11 11:46:32;;;;;;;;;;;;;;;30.53;48.88;100958.31;5070686;28;19952;-71
2021/07/11 11:49:00;;;;;;;;;;;;;;;30.74;48.71;100955.84;5071016;28;19960;-73
2021/07/11 11:51:26;;;;;;;;;;;;;;;30.01;48.66;100955.59;5067971;28;19964;-73
2021/07/11 11:53:53;;;;;;;;;;;;;;;29.92;46.03;100957.06;5081945;28;19970;-73
2021/07/11 11:56:20;;;;;;;;;;;;;;;30.50;44.30;100955.16;5090826;28;19924;-72
2021/07/11 11:58:47;;;;;;;;;;;;;;;31.21;43.26;100954.66;5090869;28;19978;-73
2021/07/11 12:01:14;;;;;;;;;;;;;;;31.75;44.25;100956.84;5091087;28;19959;-73
2021/07/11 12:03:41;;;;;;;;;;;;;;;31.47;43.38;100960.63;5090080;28;19959;-73
2021/07/11 12:06:09;;;;;;;;;;;;;;;31.30;44.64;100964.31;5091303;28;19974;-72
2021/07/11 12:08:36;;;;;;;;;;;;;;;31.84;51.03;100962.81;5090421;28;19959;-72
2021/07/11 12:11:03;;;;;;;;;;;;;;;31.62;44.01;100962.84;5091192;28;19978;-72
2021/07/11 12:13:31;;;;;;;;;;;;;;;31.01;45.91;100957.97;5071415;28;19960;-72
2021/07/11 12:16:07;;;;;;;;;;;;;;;31.11;55.78;100960.97;5070430;28;19956;-72
2021/07/11 12:18:46;;;;;;;;;;;;;;;30.75;53.29;100954.75;5070448;28;19974;-72
2021/07/11 12:21:13;;;;;;;;;;;;;;;29.79;48.79;100947.84;5083610;28;19946;-72
2021/07/11 12:23:39;;;;;;;;;;;;;;;29.45;48.95;100950.50;5080541;28;20022;-72
2021/07/11 12:26:07;;;;;;;;;;;;;;;29.55;62.63;100949.84;5074190;28;19983;-72
2021/07/11 12:28:35;;;;;;;;;;;;;;;29.28;55.13;100958.78;5081025;28;19968;-72
2021/07/11 12:31:02;;;;;;;;;;;;;;;29.04;54.71;100952.31;5077820;28;19924;-71
2021/07/11 12:33:31;;;;;;;;;;;;;;;29.46;53.74;100948.53;5073747;28;19998;-71